createdAt,value
2018-11-13T00:01:48.750Z,101276.63
2018-11-13T00:04:17.448Z,101277.53
2018-11-13T00:06:46.096Z,101273.17
2018-11-13T00:09:14.739Z,101284.37
2018-11-13T00:11:43.403Z,101277.94
2018-11-13T00:14:12.063Z,101282.70
2018-11-13T00:16:40.825Z,101289.09
2018-11-13T00:19:09.486Z,101283.27
2018-11-13T00:21:38.178Z,101282.81
2018-11-13T00:24:07.115Z,101287.05
2018-11-13T00:26:35.670Z,101293.98
2018-11-13T00:29:04.377Z,101308.69
2018-11-13T00:31:33.007Z,101304.41
2018-11-13T00:34:01.661Z,101304.94
2018-11-13T00:36:30.324Z,101306.29
2018-11-13T00:38:58.967Z,101318.80
2018-11-13T00:41:27.636Z,101304.09
2018-11-13T00:43:56.264Z,101322.39
2018-11-13T00:46:24.896Z,101327.23
2018-11-13T00:48:53.568Z,101330.70
2018-11-13T00:51:22.207Z,101345.48
2018-11-13T00:53:50.859Z,101335.55
2018-11-13T00:56:19.544Z,101335.51
2018-11-13T00:58:48.196Z,101346.34
2018-11-13T01:01:16.843Z,101351.48
2018-11-13T01:03:45.496Z,101346.72
2018-11-13T01:06:14.155Z,101349.28
2018-11-13T01:08:42.810Z,101358.78
2018-11-13T01:11:11.479Z,101371.37
2018-11-13T01:13:40.131Z,101369.73
2018-11-13T01:16:08.814Z,101372.75
2018-11-13T01:18:37.491Z,101373.90
2018-11-13T01:21:06.189Z,101375.08
2018-11-13T01:23:34.853Z,101383.77
2018-11-13T01:26:03.516Z,101380.38
2018-11-13T01:28:32.165Z,101392.56
2018-11-13T01:31:00.817Z,101387.34
2018-11-13T01:33:29.509Z,101397.25
2018-11-13T01:35:58.181Z,101395.05
2018-11-13T01:38:26.815Z,101400.80
2018-11-13T01:40:55.452Z,101417.63
2018-11-13T01:43:24.128Z,101420.16
2018-11-13T01:45:52.768Z,101418.41
2018-11-13T01:48:21.419Z,101430.14
2018-11-13T01:50:50.047Z,101436.33
2018-11-13T01:53:18.712Z,101433.73
2018-11-13T01:55:47.393Z,101442.85
2018-11-13T01:58:16.083Z,101445.91
2018-11-13T02:00:44.779Z,101447.22
2018-11-13T02:03:13.433Z,101444.53
2018-11-13T02:05:42.115Z,101448.33
2018-11-13T02:08:10.790Z,101442.94
2018-11-13T02:10:39.467Z,101453.75
2018-11-13T02:13:08.120Z,101461.20
2018-11-13T02:15:36.759Z,101463.94
2018-11-13T02:18:05.480Z,101464.91
2018-11-13T02:20:34.115Z,101468.86
2018-11-13T02:23:02.795Z,101477.09
2018-11-13T02:25:31.465Z,101467.11
2018-11-13T02:28:00.154Z,101470.13
2018-11-13T02:30:28.844Z,101477.02
2018-11-13T02:32:57.504Z,101480.94
2018-11-13T02:35:26.228Z,101483.50
2018-11-13T02:37:54.825Z,101478.80
2018-11-13T02:40:23.492Z,101485.48
2018-11-13T02:42:52.186Z,101476.92
2018-11-13T02:45:20.927Z,101490.83
2018-11-13T02:47:49.611Z,101487.77
2018-11-13T02:50:19.464Z,101491.68
2018-11-13T02:52:48.185Z,101488.17
2018-11-13T02:55:16.923Z,101491.64
2018-11-13T02:57:46.250Z,101492.87
2018-11-13T03:00:17.628Z,101494.17
2018-11-13T03:02:46.299Z,101508.07
2018-11-13T03:05:20.070Z,101503.70
2018-11-13T03:07:48.757Z,101505.91
2018-11-13T03:10:18.499Z,101502.85
2018-11-13T03:12:47.230Z,101524.62
2018-11-13T03:15:16.906Z,101512.43
2018-11-13T03:17:45.580Z,101518.05
2018-11-13T03:20:15.650Z,101518.05
2018-11-13T03:22:44.743Z,101523.72
2018-11-13T03:25:16.002Z,101527.23
2018-11-13T03:27:44.689Z,101525.55
2018-11-13T03:30:17.656Z,101527.67
2018-11-13T03:32:46.411Z,101532.06
2018-11-13T03:35:15.101Z,101535.13
2018-11-13T03:37:44.123Z,101538.70
2018-11-13T03:40:13.498Z,101541.31
2018-11-13T03:42:42.714Z,101551.67
2018-11-13T03:45:12.167Z,101561.21
2018-11-13T03:47:40.835Z,101566.02
2018-11-13T03:50:13.295Z,101574.70
2018-11-13T03:52:42.451Z,101575.16
2018-11-13T03:55:11.968Z,101570.83
2018-11-13T03:57:41.659Z,101578.17
2018-11-13T04:00:12.791Z,101594.19
2018-11-13T04:02:41.703Z,101611.11
2018-11-13T04:05:13.484Z,101609.36
2018-11-13T04:07:45.340Z,101601.01
2018-11-13T04:10:15.100Z,101602.31
2018-11-13T04:12:43.964Z,101603.62
2018-11-13T04:15:15.061Z,101611.03
2018-11-13T04:17:43.745Z,101615.80
2018-11-13T04:20:14.080Z,101622.73
2018-11-13T04:22:43.204Z,101613.98
2018-11-13T04:25:11.908Z,101623.52
2018-11-13T04:27:40.647Z,101633.50
2018-11-13T04:30:11.381Z,101636.05
2018-11-13T04:32:40.548Z,101635.08
2018-11-13T04:35:10.662Z,101647.63
2018-11-13T04:37:39.324Z,101651.92
2018-11-13T04:40:11.531Z,101645.80
2018-11-13T04:42:40.726Z,101653.52
2018-11-13T04:45:10.878Z,101652.22
2018-11-13T04:47:39.604Z,101660.49
2018-11-13T04:50:10.033Z,101670.59
2018-11-13T04:52:38.764Z,101670.59
2018-11-13T04:55:07.862Z,101676.27
2018-11-13T04:57:36.588Z,101693.22
2018-11-13T05:00:07.404Z,101695.76
2018-11-13T05:02:36.072Z,101704.06
2018-11-13T05:05:05.148Z,101704.52
2018-11-13T05:07:33.811Z,101694.86
2018-11-13T05:10:02.581Z,101708.21
2018-11-13T05:12:31.273Z,101714.22
2018-11-13T05:14:59.912Z,101724.58
2018-11-13T05:17:28.575Z,101721.97
2018-11-13T05:19:57.221Z,101741.09
2018-11-13T05:22:25.880Z,101735.95
2018-11-13T05:24:54.540Z,101745.56
2018-11-13T05:27:23.199Z,101743.37
2018-11-13T05:29:52.327Z,101750.78
2018-11-13T05:32:21.024Z,101752.16
2018-11-13T05:34:49.721Z,101759.20
2018-11-13T05:37:18.364Z,101765.84
2018-11-13T05:39:47.024Z,101768.96
2018-11-13T05:42:15.711Z,101765.53
2018-11-13T05:44:44.385Z,101772.98
2018-11-13T05:47:13.215Z,101776.55
2018-11-13T05:49:41.799Z,101782.22
2018-11-13T05:52:10.495Z,101786.64
2018-11-13T05:54:39.160Z,101793.99
2018-11-13T05:57:07.875Z,101797.53
2018-11-13T05:59:36.564Z,101794.06
2018-11-13T06:02:05.457Z,101804.09
2018-11-13T06:04:34.115Z,101809.89
2018-11-13T06:07:02.788Z,101812.08
2018-11-13T06:09:31.476Z,101818.27
2018-11-13T06:12:00.159Z,101821.76
2018-11-13T06:14:28.908Z,101821.83
2018-11-13T06:16:57.577Z,101822.62
2018-11-13T06:19:26.300Z,101830.44
2018-11-13T06:21:55.007Z,101844.73
2018-11-13T06:24:23.684Z,101841.73
2018-11-13T06:26:52.351Z,101842.12
2018-11-13T06:29:21.048Z,101846.44
2018-11-13T06:31:49.733Z,101859.45
2018-11-13T06:34:18.384Z,101866.31
2018-11-13T06:36:47.057Z,101866.77
2018-11-13T06:39:15.737Z,101866.42
2018-11-13T06:41:44.685Z,101873.42
2018-11-13T06:44:13.341Z,101880.42
2018-11-13T06:46:42.461Z,101881.31
2018-11-13T06:49:11.585Z,101887.42
2018-11-13T06:51:40.191Z,101899.64
2018-11-13T06:54:19.900Z,101900.94
2018-11-13T06:56:48.584Z,101897.06
2018-11-13T06:59:17.268Z,101903.14
2018-11-13T07:01:45.944Z,101912.17
2018-11-13T07:04:14.707Z,101914.27
2018-11-13T07:06:43.368Z,101919.55
2018-11-13T07:09:12.047Z,101922.77
2018-11-13T07:11:40.718Z,101928.17
2018-11-13T07:14:09.392Z,101939.14
2018-11-13T07:16:38.072Z,101940.61
2018-11-13T07:19:06.818Z,101938.53
2018-11-13T07:21:35.510Z,101942.45
2018-11-13T07:24:04.423Z,101940.25
2018-11-13T07:26:33.081Z,101940.61
2018-11-13T07:29:02.268Z,101943.13
2018-11-13T07:31:31.065Z,101948.18
2018-11-13T07:33:59.754Z,101942.01
2018-11-13T07:36:28.435Z,101947.58
2018-11-13T07:38:57.292Z,101951.91
2018-11-13T07:41:25.952Z,101951.81
2018-11-13T07:43:54.632Z,101957.91
2018-11-13T07:46:23.297Z,101957.05
2018-11-13T07:48:53.335Z,101965.30
2018-11-13T07:51:22.106Z,101970.89
2018-11-13T07:53:50.855Z,101972.61
2018-11-13T07:56:19.494Z,101979.55
2018-11-13T07:58:48.188Z,101983.05
2018-11-13T08:01:16.885Z,101990.02
2018-11-13T08:03:45.579Z,101993.90
2018-11-13T08:06:14.351Z,101999.12
2018-11-13T08:08:43.014Z,102008.59
2018-11-13T08:11:11.686Z,102010.28
2018-11-13T08:13:40.457Z,102014.61
2018-11-13T08:16:09.043Z,102023.23
2018-11-13T08:18:37.732Z,102024.45
2018-11-13T08:21:06.522Z,102032.19
2018-11-13T08:23:35.145Z,102045.14
2018-11-13T08:26:03.815Z,102045.08
2018-11-13T08:28:32.543Z,102048.96
2018-11-13T08:31:01.204Z,102057.59
2018-11-13T08:33:29.900Z,102064.44
2018-11-13T08:35:58.555Z,102066.63
2018-11-13T08:38:27.256Z,102082.38
2018-11-13T08:40:55.964Z,102084.22
2018-11-13T08:43:24.637Z,102096.02
2018-11-13T08:45:53.317Z,102101.75
2018-11-13T08:48:22.027Z,102100.91
2018-11-13T08:50:50.758Z,102103.52
2018-11-13T08:53:19.374Z,102110.88
2018-11-13T08:55:48.057Z,102108.56
2018-11-13T08:58:16.752Z,102109.78
2018-11-13T09:00:45.412Z,102116.03
2018-11-13T09:03:14.064Z,102120.95
2018-11-13T09:05:42.756Z,102114.66
2018-11-13T09:08:11.428Z,102113.55
2018-11-13T09:10:40.880Z,102121.60
2018-11-13T09:13:09.525Z,102128.03
2018-11-13T09:15:38.185Z,102129.72
2018-11-13T09:18:07.295Z,102140.02
2018-11-13T09:20:35.974Z,102140.42
2018-11-13T09:23:04.679Z,102139.57
2018-11-13T09:25:33.346Z,102150.37
2018-11-13T09:28:02.052Z,102155.40
2018-11-13T09:30:30.933Z,102162.16
2018-11-13T09:32:59.474Z,102158.65
2018-11-13T09:35:28.124Z,102163.84
2018-11-13T09:37:56.789Z,102179.01
2018-11-13T09:40:25.452Z,102174.16
2018-11-13T09:42:54.129Z,102177.16
2018-11-13T09:45:22.809Z,102168.46
2018-11-13T09:47:51.564Z,102169.77
2018-11-13T09:50:21.252Z,102187.14
2018-11-13T09:52:51.206Z,102190.16
2018-11-13T09:55:21.137Z,102191.38
2018-11-13T09:57:50.088Z,102191.72
2018-11-13T10:00:20.425Z,102194.69
2018-11-13T10:02:50.897Z,102195.00
2018-11-13T10:05:20.033Z,102201.03
2018-11-13T10:07:49.022Z,102205.23
2018-11-13T10:10:17.772Z,102200.32
2018-11-13T10:12:46.484Z,102208.45
2018-11-13T10:15:16.935Z,102197.96
2018-11-13T10:17:45.757Z,102199.17
2018-11-13T10:20:15.080Z,102203.37
2018-11-13T10:22:45.026Z,102203.27
2018-11-13T10:25:13.752Z,102205.38
2018-11-13T10:27:43.015Z,102217.90
2018-11-13T10:30:13.793Z,102212.57
2018-11-13T10:32:42.984Z,102222.86
2018-11-13T10:35:12.672Z,102225.34
2018-11-13T10:37:41.735Z,102226.14
2018-11-13T10:40:13.529Z,102229.03
2018-11-13T10:42:42.316Z,102224.56
2018-11-13T10:45:13.252Z,102224.88
2018-11-13T10:47:42.132Z,102232.66
2018-11-13T10:50:15.362Z,102236.98
2018-11-13T10:52:44.032Z,102236.13
2018-11-13T10:55:12.948Z,102249.55
2018-11-13T10:57:42.133Z,102252.97
2018-11-13T11:00:18.006Z,102247.70
2018-11-13T11:02:51.945Z,102252.52
2018-11-13T11:05:20.700Z,102250.25
2018-11-13T11:07:50.079Z,102251.03
2018-11-13T11:10:18.753Z,102251.38
2018-11-13T11:12:47.430Z,102249.94
2018-11-13T11:15:16.156Z,102255.96
2018-11-13T11:17:44.807Z,102256.72
2018-11-13T11:20:13.911Z,102261.27
2018-11-13T11:22:42.708Z,102257.06
2018-11-13T11:25:12.402Z,102256.62
2018-11-13T11:27:41.101Z,102252.97
2018-11-13T11:30:12.053Z,102248.08
2018-11-13T11:32:40.809Z,102250.09
2018-11-13T11:35:09.613Z,102244.83
2018-11-13T11:37:39.004Z,102250.52
2018-11-13T11:40:07.818Z,102244.94
2018-11-13T11:42:36.632Z,102246.42
2018-11-13T11:45:06.673Z,102250.00
2018-11-13T11:47:35.394Z,102248.28
2018-11-13T11:50:04.236Z,102252.41
2018-11-13T11:52:32.928Z,102245.96
2018-11-13T11:55:01.607Z,102250.53
2018-11-13T11:57:30.301Z,102250.87
2018-11-13T11:59:58.983Z,102245.45
2018-11-13T12:02:27.664Z,102252.80
2018-11-13T12:04:56.424Z,102242.38
2018-11-13T12:07:25.135Z,102248.17
2018-11-13T12:09:53.805Z,102244.54
2018-11-13T12:12:22.543Z,102247.42
2018-11-13T12:14:51.224Z,102255.80
2018-11-13T12:17:19.902Z,102258.31
2018-11-13T12:19:48.555Z,102255.09
2018-11-13T12:22:17.236Z,102261.09
2018-11-13T12:24:45.888Z,102259.96
2018-11-13T12:27:14.559Z,102266.33
2018-11-13T12:29:43.624Z,102264.16
2018-11-13T12:32:12.285Z,102269.18
2018-11-13T12:34:41.003Z,102268.39
2018-11-13T12:37:09.641Z,102263.50
2018-11-13T12:39:38.317Z,102270.54
2018-11-13T12:42:07.000Z,102270.96
2018-11-13T12:44:35.656Z,102275.00
2018-11-13T12:47:04.472Z,102278.86
2018-11-13T12:49:33.152Z,102278.00
2018-11-13T12:52:07.039Z,102279.95
2018-11-13T12:54:35.728Z,102272.20
2018-11-13T12:57:04.429Z,102280.06
2018-11-13T12:59:33.088Z,102277.97
2018-11-13T13:02:01.786Z,102278.86
2018-11-13T13:04:30.420Z,102270.33
2018-11-13T13:06:59.108Z,102269.68
2018-11-13T13:09:27.919Z,102269.30
2018-11-13T13:11:56.663Z,102261.08
2018-11-13T13:14:25.361Z,102258.66
2018-11-13T13:16:54.016Z,102256.01
2018-11-13T13:19:22.712Z,102259.02
2018-11-13T13:21:51.420Z,102254.71
2018-11-13T13:24:20.093Z,102247.65
2018-11-13T13:26:48.823Z,102249.98
2018-11-13T13:29:17.534Z,102248.88
2018-11-13T13:31:46.308Z,102243.02
2018-11-13T13:34:14.963Z,102251.61
2018-11-13T13:36:43.697Z,102241.61
2018-11-13T13:39:12.387Z,102243.97
2018-11-13T13:41:41.928Z,102243.70
2018-11-13T13:44:10.609Z,102245.34
2018-11-13T13:46:39.320Z,102244.23
2018-11-13T13:49:07.987Z,102244.61
2018-11-13T13:51:36.678Z,102243.16
2018-11-13T13:54:05.648Z,102235.02
2018-11-13T13:56:34.203Z,102236.73
2018-11-13T13:59:02.876Z,102230.30
2018-11-13T14:01:31.559Z,102227.80
2018-11-13T14:04:00.210Z,102229.44
2018-11-13T14:06:28.947Z,102235.41
2018-11-13T14:08:57.665Z,102234.02
2018-11-13T14:11:26.301Z,102234.10
2018-11-13T14:13:55.020Z,102237.36
2018-11-13T14:16:23.691Z,102237.35
2018-11-13T14:18:52.406Z,102242.58
2018-11-13T14:21:21.108Z,102234.42
2018-11-13T14:23:49.783Z,102228.66
2018-11-13T14:26:18.508Z,102234.26
2018-11-13T14:28:47.367Z,102236.27
2018-11-13T14:31:16.052Z,102234.56
2018-11-13T14:33:44.698Z,102238.47
2018-11-13T14:36:13.356Z,102242.22
2018-11-13T14:38:42.008Z,102244.53
2018-11-13T14:41:10.769Z,102236.25
2018-11-13T14:43:39.721Z,102238.80
2018-11-13T14:46:08.406Z,102233.41
2018-11-13T14:48:37.092Z,102232.02
2018-11-13T14:51:06.325Z,102231.24
2018-11-13T14:53:35.015Z,102228.75
2018-11-13T14:56:03.726Z,102224.35
2018-11-13T14:58:32.460Z,102226.02
2018-11-13T15:01:01.212Z,102228.64
2018-11-13T15:03:30.054Z,102229.26
2018-11-13T15:05:58.772Z,102227.95
2018-11-13T15:08:27.487Z,102226.95
2018-11-13T15:10:56.179Z,102234.00
2018-11-13T15:13:26.039Z,102231.02
2018-11-13T15:15:54.724Z,102235.56
2018-11-13T15:18:23.427Z,102242.72
2018-11-13T15:20:52.729Z,102239.48
2018-11-13T15:23:21.426Z,102243.30
2018-11-13T15:25:50.127Z,102252.50
2018-11-13T15:28:18.833Z,102251.68
2018-11-13T15:30:49.170Z,102250.48
2018-11-13T15:33:20.092Z,102258.31
2018-11-13T15:35:48.867Z,102260.18
2018-11-13T15:38:17.568Z,102255.03
2018-11-13T15:40:46.310Z,102255.09
2018-11-13T15:43:15.016Z,102260.41
2018-11-13T15:45:43.723Z,102256.89
2018-11-13T15:48:13.328Z,102250.34
2018-11-13T15:50:42.106Z,102248.09
2018-11-13T15:53:10.971Z,102253.66
2018-11-13T15:55:39.657Z,102255.17
2018-11-13T15:58:08.556Z,102250.75
2018-11-13T16:00:38.494Z,102240.94
2018-11-13T16:03:08.880Z,102242.05
2018-11-13T16:06:15.142Z,102249.21
2018-11-13T16:08:44.805Z,102240.27
2018-11-13T16:11:13.337Z,102247.45
2018-11-13T16:13:42.022Z,102253.31
2018-11-13T16:16:10.707Z,102263.08
2018-11-13T16:18:39.471Z,102264.21
2018-11-13T16:21:08.167Z,102267.02
2018-11-13T16:23:36.786Z,102270.80
2018-11-13T16:26:05.775Z,102279.66
2018-11-13T16:28:34.409Z,102280.30
2018-11-13T16:31:03.117Z,102286.17
2018-11-13T16:33:31.785Z,102284.16
2018-11-13T16:36:00.485Z,102291.81
2018-11-13T16:38:29.280Z,102293.30
2018-11-13T16:40:57.855Z,102293.90
2018-11-13T16:43:26.513Z,102300.17
2018-11-13T16:45:55.142Z,102300.80
2018-11-13T16:48:23.874Z,102291.36
2018-11-13T16:50:52.470Z,102291.95
2018-11-13T16:53:21.138Z,102294.68
2018-11-13T16:55:54.976Z,102292.63
2018-11-13T16:58:23.680Z,102295.78
2018-11-13T17:00:52.344Z,102297.14
2018-11-13T17:03:21.028Z,102297.17
2018-11-13T17:05:49.748Z,102289.42
2018-11-13T17:08:18.421Z,102300.67
2018-11-13T17:10:47.090Z,102300.23
2018-11-13T17:13:15.789Z,102304.56
2018-11-13T17:15:44.467Z,102295.84
2018-11-13T17:18:13.789Z,102293.16
2018-11-13T17:20:42.182Z,102294.03
2018-11-13T17:23:10.865Z,102287.08
2018-11-13T17:25:39.952Z,102286.19
2018-11-13T17:28:08.875Z,102283.97
2018-11-13T17:30:37.804Z,102291.36
2018-11-13T17:33:07.833Z,102293.08
2018-11-13T17:35:36.507Z,102291.33
2018-11-13T17:38:05.348Z,102291.71
2018-11-13T17:40:35.354Z,102298.24
2018-11-13T17:43:05.340Z,102300.41
2018-11-13T17:45:36.168Z,102295.19
2018-11-13T17:48:05.008Z,102297.35
2018-11-13T17:50:37.755Z,102297.77
2018-11-13T17:53:07.337Z,102294.30
2018-11-13T17:55:36.083Z,102290.31
2018-11-13T17:58:06.540Z,102288.15
2018-11-13T18:00:36.471Z,102293.34
2018-11-13T18:03:06.254Z,102292.91
2018-11-13T18:05:35.422Z,102291.59
2018-11-13T18:08:04.727Z,102296.34
2018-11-13T18:10:34.188Z,102295.90
2018-11-13T18:13:02.862Z,102294.20
2018-11-13T18:15:31.752Z,102300.77
2018-11-13T18:18:00.640Z,102297.77
2018-11-13T18:20:31.463Z,102298.69
2018-11-13T18:23:00.190Z,102293.11
2018-11-13T18:25:29.198Z,102292.30
2018-11-13T18:27:59.205Z,102297.61
2018-11-13T18:30:29.072Z,102302.03
2018-11-13T18:32:58.367Z,102302.13
2018-11-13T18:35:28.423Z,102304.82
2018-11-13T18:37:58.155Z,102297.52
2018-11-13T18:40:27.183Z,102299.73
2018-11-13T18:42:57.032Z,102303.77
2018-11-13T18:45:29.620Z,102300.38
2018-11-13T18:47:58.374Z,102298.72
2018-11-13T18:50:32.121Z,102297.91
2018-11-13T18:53:00.809Z,102296.63
2018-11-13T18:55:29.522Z,102301.91
2018-11-13T18:57:58.508Z,102299.77
2018-11-13T19:00:41.832Z,102301.55
2018-11-13T19:03:11.703Z,102296.35
2018-11-13T19:05:40.495Z,102296.80
2018-11-13T19:08:09.364Z,102291.19
2018-11-13T19:10:40.116Z,102287.72
2018-11-13T19:13:28.067Z,102289.02
2018-11-13T19:15:58.750Z,102287.22
2018-11-13T19:18:27.493Z,102284.11
2018-11-13T19:20:56.165Z,102282.33
2018-11-13T19:23:24.890Z,102277.91
2018-11-13T19:25:53.626Z,102279.16
2018-11-13T19:28:22.340Z,102270.00
2018-11-13T19:30:51.016Z,102268.19
2018-11-13T19:33:19.725Z,102265.99
2018-11-13T19:35:48.526Z,102272.91
2018-11-13T19:38:17.169Z,102268.10
2018-11-13T19:40:45.876Z,102265.43
2018-11-13T19:43:15.440Z,102264.55
2018-11-13T19:45:43.832Z,102270.13
2018-11-13T19:48:12.568Z,102266.63
2018-11-13T19:50:41.622Z,102261.78
2018-11-13T19:53:09.990Z,102258.28
2018-11-13T19:55:38.698Z,102258.28
2018-11-13T19:58:07.540Z,102257.39
2018-11-13T20:00:37.522Z,102252.95
2018-11-13T20:03:07.658Z,102253.80
2018-11-13T20:05:36.461Z,102259.03
2018-11-13T20:08:05.576Z,102259.45
2018-11-13T20:10:35.165Z,102260.75
2018-11-13T20:13:08.866Z,102261.11
2018-11-13T20:15:38.133Z,102243.69
2018-11-13T20:18:06.995Z,102246.69
2018-11-13T20:20:36.035Z,102250.95
2018-11-13T20:23:06.077Z,102256.18
2018-11-13T20:25:35.411Z,102250.52
2018-11-13T20:28:04.188Z,102256.53
2018-11-13T20:30:34.189Z,102253.45
2018-11-13T20:33:02.914Z,102249.05
2018-11-13T20:35:31.652Z,102249.89
2018-11-13T20:38:00.813Z,102243.30
2018-11-13T20:40:31.591Z,102232.40
2018-11-13T20:43:01.527Z,102240.66
2018-11-13T20:45:30.269Z,102239.73
2018-11-13T20:47:58.994Z,102233.64
2018-11-13T20:50:29.137Z,102230.65
2018-11-13T20:52:57.839Z,102228.39
2018-11-13T20:55:26.632Z,102230.56
2018-11-13T20:57:55.348Z,102229.25
2018-11-13T21:00:28.186Z,102226.64
2018-11-13T21:02:56.935Z,102225.72
2018-11-13T21:05:25.764Z,102224.41
2018-11-13T21:07:54.519Z,102228.30
2018-11-13T21:10:23.724Z,102228.23
2018-11-13T21:12:52.824Z,102224.73
2018-11-13T21:15:22.001Z,102229.03
2018-11-13T21:17:50.673Z,102224.22
2018-11-13T21:20:19.871Z,102231.17
2018-11-13T21:22:48.666Z,102229.36
2018-11-13T21:25:19.265Z,102223.69
2018-11-13T21:27:47.767Z,102227.09
2018-11-13T21:30:20.222Z,102237.10
2018-11-13T21:32:49.452Z,102237.10
2018-11-13T21:35:18.261Z,102231.88
2018-11-13T21:37:48.214Z,102220.12
2018-11-13T21:40:18.064Z,102216.13
2018-11-13T21:42:47.544Z,102201.31
2018-11-13T21:45:16.775Z,102206.55
2018-11-13T21:47:45.460Z,102213.08
2018-11-13T21:50:15.648Z,102210.88
2018-11-13T21:52:44.358Z,102223.94
2018-11-13T21:55:14.754Z,102226.94
2018-11-13T21:57:43.571Z,102232.58
2018-11-13T22:00:16.912Z,102243.03
2018-11-13T22:02:47.520Z,102247.81
2018-11-13T22:05:16.196Z,102246.06
2018-11-13T22:07:44.867Z,102247.37
2018-11-13T22:10:13.564Z,102244.24
2018-11-13T22:12:42.286Z,102238.12
2018-11-13T22:15:13.392Z,102231.08
2018-11-13T22:17:42.377Z,102230.16
2018-11-13T22:20:12.577Z,102224.55
2018-11-13T22:22:41.558Z,102225.41
2018-11-13T22:25:14.612Z,102224.91
2018-11-13T22:27:43.769Z,102223.59
2018-11-13T22:30:14.340Z,102218.02
2018-11-13T22:32:43.218Z,102215.30
2018-11-13T22:35:12.955Z,102219.61
2018-11-13T22:37:41.666Z,102214.80
2018-11-13T22:40:13.663Z,102217.82
2018-11-13T22:42:42.367Z,102212.59
2018-11-13T22:45:27.560Z,102204.76
2018-11-13T22:47:56.571Z,102211.67
2018-11-13T22:50:27.636Z,102207.30
2018-11-13T22:52:56.436Z,102205.14
2018-11-13T22:55:25.096Z,102190.83
2018-11-13T22:57:54.981Z,102202.94
2018-11-13T23:00:26.264Z,102195.48
2018-11-13T23:02:55.411Z,102195.09
2018-11-13T23:05:24.110Z,102199.39
2018-11-13T23:07:52.796Z,102190.73
2018-11-13T23:10:21.498Z,102188.56
2018-11-13T23:12:50.171Z,102189.45
2018-11-13T23:15:20.359Z,102179.95
2018-11-13T23:17:49.001Z,102186.45
2018-11-13T23:20:18.911Z,102179.95
2018-11-13T23:22:47.596Z,102177.79
2018-11-13T23:25:17.464Z,102171.67
2018-11-13T23:27:46.967Z,102173.87
2018-11-13T23:30:18.402Z,102175.17
2018-11-13T23:32:47.174Z,102176.48
2018-11-13T23:35:16.288Z,102173.87
2018-11-13T23:37:46.017Z,102169.09
2018-11-13T23:40:15.988Z,102172.56
2018-11-13T23:42:45.052Z,102172.08
2018-11-13T23:45:14.673Z,102169.47
2018-11-13T23:47:43.850Z,102176.38
2018-11-13T23:50:12.656Z,102169.47
2018-11-13T23:52:41.555Z,102170.30
2018-11-13T23:55:11.608Z,102177.69
2018-11-13T23:57:40.755Z,102168.16
